Time;durP1;ratioP1;P1;durP2;ratioP2;P2;SDS_P1;SDS_P2;PMS_P1;PMS_P2;Temp;Humidity;BMP_temperature;BMP_pressure;BME280_temperature;BME280_humidity;BME280_pressure;Samples;Min_cycle;Max_cycle;Signal;HPM_P1;HPM_P2
2023/08/19 00:02:10;;;;;;;8.50;7.80;;;23.80;99.90;;;;;;4911521;29;20468;-47
2023/08/19 00:04:36;;;;;;;8.40;7.73;;;23.80;99.90;;;;;;4911560;29;21275;-49
2023/08/19 00:07:05;;;;;;;8.97;8.27;;;23.80;99.90;;;;;;4910442;29;20506;-47
2023/08/19 00:09:34;;;;;;;10.73;9.73;;;23.80;99.90;;;;;;4911582;29;20468;-50
2023/08/19 00:12:01;;;;;;;8.80;8.10;;;23.80;99.90;;;;;;4912554;29;20823;-49
2023/08/19 00:14:28;;;;;;;8.67;7.93;;;23.80;99.90;;;;;;4903358;29;20469;-50
2023/08/19 00:16:54;;;;;;;9.00;8.30;;;23.80;99.90;;;;;;4907798;29;20991;-49
2023/08/19 00:19:21;;;;;;;9.13;8.33;;;23.80;99.90;;;;;;4913014;29;20473;-47
2023/08/19 00:21:48;;;;;;;8.70;8.00;;;23.80;99.90;;;;;;4910762;29;20468;-49
2023/08/19 00:24:16;;;;;;;8.50;7.80;;;23.80;99.90;;;;;;4906969;29;20533;-49
2023/08/19 00:26:42;;;;;;;9.97;9.07;;;23.80;99.90;;;;;;4912013;29;20819;-50
2023/08/19 00:29:09;;;;;;;8.80;8.10;;;23.80;99.90;;;;;;4911255;29;20473;-50
2023/08/19 00:31:39;;;;;;;9.90;9.10;;;23.80;99.90;;;;;;4909890;29;20478;-47
2023/08/19 00:34:06;;;;;;;9.33;8.53;;;23.80;99.90;;;;;;4909538;29;20468;-50
2023/08/19 00:36:32;;;;;;;10.80;8.60;;;23.80;99.90;;;;;;4909436;29;20915;-49
2023/08/19 00:38:59;;;;;;;7.90;7.23;;;23.80;99.90;;;;;;4907457;29;21057;-48
2023/08/19 00:41:28;;;;;;;8.67;8.00;;;23.80;99.90;;;;;;4909691;29;20832;-49
2023/08/19 00:43:55;;;;;;;9.03;8.33;;;23.80;99.90;;;;;;4907368;29;20488;-51
2023/08/19 00:46:22;;;;;;;8.23;7.63;;;23.80;99.90;;;;;;4908717;29;20984;-50
2023/08/19 00:48:49;;;;;;;8.90;8.20;;;23.80;99.90;;;;;;4910491;29;20564;-48
2023/08/19 00:51:17;;;;;;;9.60;8.70;;;23.80;99.90;;;;;;4911986;29;20470;-47
2023/08/19 00:53:43;;;;;;;8.80;8.00;;;23.80;99.90;;;;;;4909982;29;20533;-47
2023/08/19 00:56:11;;;;;;;8.43;7.70;;;23.80;99.90;;;;;;4905532;29;20474;-48
2023/08/19 00:58:39;;;;;;;9.10;8.30;;;23.80;99.90;;;;;;4911682;29;20865;-49
2023/08/19 01:01:05;;;;;;;8.93;8.23;;;23.80;99.90;;;;;;4909005;29;20468;-47
2023/08/19 01:03:32;;;;;;;8.87;7.97;;;23.80;99.90;;;;;;4908380;29;20472;-48
2023/08/19 01:06:12;;;;;;;10.13;9.13;;;23.80;99.90;;;;;;4909375;29;20473;-48
2023/08/19 01:08:44;;;;;;;8.60;7.90;;;23.70;99.90;;;;;;4907714;29;20472;-50
2023/08/19 01:11:17;;;;;;;9.33;8.53;;;23.70;99.90;;;;;;4910495;29;20467;-48
2023/08/19 01:13:56;;;;;;;7.80;7.23;;;23.70;99.90;;;;;;4907575;29;20477;-48
2023/08/19 01:16:27;;;;;;;8.93;8.20;;;23.70;99.90;;;;;;4907829;29;20465;-51
2023/08/19 01:18:54;;;;;;;9.17;8.37;;;23.70;99.90;;;;;;4909845;29;20473;-47
2023/08/19 01:21:22;;;;;;;9.57;8.77;;;23.80;99.90;;;;;;4910866;29;21361;-50
2023/08/19 01:23:50;;;;;;;8.77;8.07;;;23.70;99.90;;;;;;4906956;29;20491;-50
2023/08/19 01:26:19;;;;;;;8.47;7.57;;;23.80;99.90;;;;;;4909165;29;20475;-48
2023/08/19 01:28:47;;;;;;;8.53;7.83;;;23.80;99.90;;;;;;4911141;29;20713;-49
2023/08/19 01:31:13;;;;;;;8.80;8.10;;;23.70;99.90;;;;;;4907596;29;20474;-51
2023/08/19 01:33:40;;;;;;;8.07;7.47;;;23.70;99.90;;;;;;4909314;29;20510;-53
2023/08/19 01:36:16;;;;;;;8.63;7.93;;;23.70;99.90;;;;;;4907152;29;20477;-53
2023/08/19 01:38:49;;;;;;;10.07;9.07;;;23.70;99.90;;;;;;4907653;29;20492;-49
2023/08/19 01:41:20;;;;;;;8.33;7.70;;;23.70;99.90;;;;;;4911016;29;20462;-47
2023/08/19 01:43:48;;;;;;;8.00;7.30;;;23.70;99.90;;;;;;4908211;29;20466;-50
2023/08/19 01:46:15;;;;;;;7.63;7.03;;;23.70;99.90;;;;;;4907614;29;20469;-48
2023/08/19 01:48:42;;;;;;;8.00;7.40;;;23.70;99.90;;;;;;4909500;29;20808;-47
2023/08/19 01:51:08;;;;;;;9.57;8.57;;;23.70;99.90;;;;;;4904567;29;20521;-46
2023/08/19 01:53:35;;;;;;;8.57;7.83;;;23.70;99.90;;;;;;4905313;29;20987;-52
2023/08/19 01:56:02;;;;;;;8.73;7.93;;;23.70;99.90;;;;;;4905904;29;20477;-48
2023/08/19 01:58:30;;;;;;;9.00;8.30;;;23.70;99.90;;;;;;4905562;29;20490;-51
2023/08/19 02:00:56;;;;;;;8.17;7.47;;;23.70;99.90;;;;;;4904792;29;20516;-50
2023/08/19 02:03:23;;;;;;;7.80;7.10;;;23.70;99.90;;;;;;4909336;29;20541;-51
2023/08/19 02:05:50;;;;;;;7.33;6.73;;;23.70;99.90;;;;;;4906131;29;20479;-51
2023/08/19 02:08:17;;;;;;;7.17;6.60;;;23.70;99.90;;;;;;4906206;29;20470;-52
2023/08/19 02:10:43;;;;;;;8.20;7.50;;;23.70;99.90;;;;;;4906235;29;20488;-51
2023/08/19 02:13:10;;;;;;;6.93;6.33;;;23.70;99.90;;;;;;4906637;29;20467;-49
2023/08/19 02:15:38;;;;;;;8.67;8.07;;;23.70;99.90;;;;;;4903391;29;20473;-51
2023/08/19 02:18:06;;;;;;;11.80;8.47;;;23.70;99.90;;;;;;4904592;29;20485;-52
2023/08/19 02:20:32;;;;;;;7.73;7.13;;;23.70;99.90;;;;;;4908130;29;20471;-50
2023/08/19 02:23:00;;;;;;;7.80;7.20;;;23.70;99.90;;;;;;4908311;29;20466;-50
2023/08/19 02:25:27;;;;;;;7.43;6.83;;;23.70;99.90;;;;;;4907352;29;20474;-49
2023/08/19 02:27:53;;;;;;;7.80;7.20;;;23.70;99.90;;;;;;4906319;29;20462;-51
2023/08/19 02:30:20;;;;;;;7.40;6.83;;;23.70;99.90;;;;;;4906124;29;20470;-50
2023/08/19 02:32:48;;;;;;;8.67;7.83;;;23.70;99.90;;;;;;4906771;29;20971;-49
2023/08/19 02:35:16;;;;;;;8.67;7.87;;;23.70;99.90;;;;;;4904333;29;20470;-49
2023/08/19 02:37:43;;;;;;;7.50;7.00;;;23.70;99.90;;;;;;4903688;29;21007;-47
2023/08/19 02:40:10;;;;;;;8.70;7.90;;;23.70;99.90;;;;;;4902974;29;20482;-51
2023/08/19 02:42:37;;;;;;;8.10;7.50;;;23.70;99.90;;;;;;4901056;29;20570;-47
2023/08/19 02:45:06;;;;;;;7.47;6.87;;;23.60;99.90;;;;;;4899019;29;20705;-47
2023/08/19 02:47:32;;;;;;;8.13;7.53;;;23.60;99.90;;;;;;4902510;29;20568;-48
2023/08/19 02:50:00;;;;;;;6.20;5.70;;;23.70;99.90;;;;;;4899654;29;20475;-50
2023/08/19 02:52:27;;;;;;;7.87;7.27;;;23.60;99.90;;;;;;4901946;29;20900;-47
2023/08/19 02:54:54;;;;;;;8.00;7.37;;;23.60;99.90;;;;;;4901723;29;20531;-52
2023/08/19 02:57:21;;;;;;;7.93;7.13;;;23.60;99.90;;;;;;4901532;29;20490;-52
2023/08/19 02:59:47;;;;;;;7.27;6.70;;;23.60;99.90;;;;;;4899807;29;21390;-49
2023/08/19 03:02:14;;;;;;;7.83;7.33;;;23.70;99.90;;;;;;4899721;29;20467;-51
2023/08/19 03:04:41;;;;;;;8.70;8.03;;;23.60;99.90;;;;;;4895260;29;20478;-49
2023/08/19 03:07:09;;;;;;;6.83;6.33;;;23.60;99.90;;;;;;4901350;29;21234;-50
2023/08/19 03:09:36;;;;;;;8.37;7.57;;;23.60;99.90;;;;;;4892337;29;20607;-48
2023/08/19 03:12:02;;;;;;;7.30;6.70;;;23.60;99.90;;;;;;4901185;29;20541;-49
2023/08/19 03:14:29;;;;;;;7.97;7.17;;;23.60;99.90;;;;;;4900820;29;20489;-50
2023/08/19 03:16:56;;;;;;;7.60;7.03;;;23.60;99.90;;;;;;4902390;29;20478;-51
2023/08/19 03:19:22;;;;;;;7.33;6.73;;;23.70;99.90;;;;;;4905508;29;20695;-49
2023/08/19 03:21:49;;;;;;;8.20;7.60;;;23.60;99.90;;;;;;4909138;29;20474;-47
2023/08/19 03:24:17;;;;;;;7.03;6.53;;;23.60;99.90;;;;;;4904750;29;21156;-48
2023/08/19 03:26:44;;;;;;;6.97;6.47;;;23.70;99.90;;;;;;4903933;29;21113;-47
2023/08/19 03:29:10;;;;;;;6.83;6.33;;;23.60;99.90;;;;;;4907109;29;20476;-49
2023/08/19 03:31:37;;;;;;;7.10;6.50;;;23.70;99.90;;;;;;4902412;29;20476;-47
2023/08/19 03:34:04;;;;;;;7.50;6.90;;;23.60;99.90;;;;;;4906986;29;20967;-48
2023/08/19 03:36:30;;;;;;;7.37;6.77;;;23.60;99.90;;;;;;4908439;29;20471;-49
2023/08/19 03:38:57;;;;;;;7.50;6.90;;;23.60;99.90;;;;;;4905469;29;20507;-47
2023/08/19 09:51:08;;;;;;;5.10;4.23;;;24.00;99.90;;;;;;4899334;29;20442;-53
2023/08/19 09:53:38;;;;;;;6.57;4.27;;;24.00;99.90;;;;;;4900631;29;20473;-47
2023/08/19 09:56:05;;;;;;;4.73;4.37;;;24.00;99.90;;;;;;4902699;29;20526;-49
2023/08/19 09:58:32;;;;;;;5.27;4.47;;;24.00;99.90;;;;;;4902468;29;21001;-51
2023/08/19 10:00:58;;;;;;;4.70;4.30;;;24.00;99.90;;;;;;4905522;29;20476;-50
2023/08/19 10:03:25;;;;;;;4.70;4.20;;;24.00;99.90;;;;;;4900409;29;20470;-48
2023/08/19 10:05:54;;;;;;;5.20;4.03;;;24.10;99.90;;;;;;4902246;29;21002;-52
2023/08/19 10:08:27;;;;;;;5.73;4.37;;;24.10;99.90;;;;;;4900858;29;20466;-50
2023/08/19 10:10:55;;;;;;;3.97;3.60;;;24.10;99.90;;;;;;4906585;29;20514;-52
2023/08/19 10:13:25;;;;;;;5.53;4.07;;;24.10;99.90;;;;;;4901234;29;22175;-48
2023/08/19 10:15:55;;;;;;;8.80;5.03;;;24.10;99.90;;;;;;4904998;29;20479;-49
2023/08/19 10:18:26;;;;;;;4.30;3.90;;;24.20;99.90;;;;;;4902199;29;20491;-55
2023/08/19 10:20:56;;;;;;;5.27;4.60;;;24.20;99.90;;;;;;4899203;29;20474;-51
2023/08/19 10:23:25;;;;;;;4.87;4.47;;;24.20;99.90;;;;;;4913016;29;20467;-59
2023/08/19 10:25:52;;;;;;;3.97;3.67;;;24.20;99.90;;;;;;4903360;29;20455;-60
2023/08/19 10:28:25;;;;;;;4.60;4.20;;;24.20;99.90;;;;;;4915209;29;20740;-62
2023/08/19 10:31:06;;;;;;;6.00;4.30;;;24.30;99.90;;;;;;4910155;29;20460;-58
2023/08/19 10:33:37;;;;;;;4.43;4.13;;;24.30;99.90;;;;;;4916327;29;20959;-64
2023/08/19 10:36:05;;;;;;;5.20;4.70;;;24.30;99.90;;;;;;4908326;29;20469;-54
2023/08/19 10:38:46;;;;;;;3.50;3.20;;;24.30;99.90;;;;;;4900145;29;21581;-48
2023/08/19 10:41:25;;;;;;;4.87;4.40;;;24.40;99.90;;;;;;4904789;29;22546;-50
2023/08/19 10:43:58;;;;;;;4.53;4.13;;;24.40;99.90;;;;;;4905743;29;20474;-54
2023/08/19 10:46:31;;;;;;;4.97;4.53;;;24.40;99.90;;;;;;4901637;29;20467;-48
2023/08/19 10:48:57;;;;;;;5.43;4.93;;;24.40;99.90;;;;;;4901158;29;20467;-55
2023/08/19 10:51:46;;;;;;;5.97;4.97;;;24.40;99.90;;;;;;4898156;29;20483;-56
2023/08/19 10:54:13;;;;;;;5.27;4.70;;;24.50;99.90;;;;;;4908113;29;20785;-54
2023/08/19 10:56:44;;;;;;;4.50;4.10;;;24.50;99.90;;;;;;4910669;29;20466;-51
2023/08/19 10:59:12;;;;;;;4.97;4.60;;;24.50;99.90;;;;;;4912093;29;20491;-52
2023/08/19 11:01:41;;;;;;;6.83;4.13;;;24.50;99.90;;;;;;4903311;29;20819;-55
2023/08/19 11:04:08;;;;;;;5.27;4.43;;;24.50;99.90;;;;;;4907750;29;20939;-53
2023/08/19 11:06:35;;;;;;;4.07;3.77;;;24.50;99.90;;;;;;4908980;29;20480;-49
2023/08/19 11:09:02;;;;;;;4.43;4.00;;;24.50;99.90;;;;;;4914109;29;20466;-50
2023/08/19 11:11:31;;;;;;;4.83;4.53;;;24.50;99.90;;;;;;4913403;29;20498;-53
2023/08/19 11:13:59;;;;;;;6.70;4.40;;;24.60;99.90;;;;;;4913169;29;20439;-47
2023/08/19 11:16:27;;;;;;;4.10;3.70;;;24.60;99.90;;;;;;4912317;29;20823;-46
2023/08/19 11:18:56;;;;;;;5.80;4.00;;;24.60;99.90;;;;;;4910760;29;20575;-46
2023/08/19 11:21:24;;;;;;;4.40;4.10;;;24.60;99.90;;;;;;4910877;29;20464;-47
2023/08/19 11:23:51;;;;;;;5.30;4.90;;;24.70;99.90;;;;;;4911695;29;21475;-47
2023/08/19 11:26:18;;;;;;;4.73;4.33;;;24.70;99.90;;;;;;4909093;29;21081;-48
2023/08/19 11:28:45;;;;;;;5.40;4.90;;;24.70;99.90;;;;;;4910653;29;20455;-47
2023/08/19 11:31:12;;;;;;;5.37;4.30;;;24.70;99.90;;;;;;4909693;29;20510;-48
2023/08/19 11:33:42;;;;;;;6.03;4.70;;;24.70;99.90;;;;;;4908088;29;20557;-52
2023/08/19 11:36:08;;;;;;;4.67;4.30;;;24.80;99.90;;;;;;4908475;29;20479;-49
2023/08/19 11:38:35;;;;;;;5.47;4.90;;;24.80;99.90;;;;;;4907424;29;20994;-52
2023/08/19 11:41:02;;;;;;;4.73;4.33;;;24.80;99.90;;;;;;4909112;29;20474;-52
2023/08/19 11:43:31;;;;;;;4.53;4.13;;;24.80;99.90;;;;;;4909454;29;20831;-53
2023/08/19 11:45:58;;;;;;;4.83;4.43;;;24.80;99.90;;;;;;4908670;29;20517;-52
2023/08/19 11:48:26;;;;;;;8.33;4.97;;;24.80;99.90;;;;;;4909027;29;20468;-47
2023/08/19 11:50:54;;;;;;;6.07;4.60;;;24.80;99.90;;;;;;4907850;29;20464;-47
2023/08/19 11:53:23;;;;;;;5.30;4.80;;;24.90;99.90;;;;;;4905121;29;20470;-48
2023/08/19 11:55:52;;;;;;;5.00;4.50;;;24.90;99.90;;;;;;4906017;29;20498;-48
2023/08/19 11:58:19;;;;;;;4.60;4.30;;;24.90;99.90;;;;;;4906489;29;20477;-45
2023/08/19 12:00:46;;;;;;;4.63;4.30;;;24.90;99.90;;;;;;4908578;29;20472;-47
2023/08/19 12:03:15;;;;;;;7.30;5.77;;;24.90;99.90;;;;;;4907774;29;20471;-49
2023/08/19 12:05:44;;;;;;;5.80;5.30;;;24.90;99.90;;;;;;4907452;29;21129;-45
2023/08/19 12:08:31;;;;;;;6.20;5.17;;;25.00;99.90;;;;;;4908479;29;20559;-46
2023/08/19 12:10:58;;;;;;;5.30;4.80;;;24.90;99.90;;;;;;4907784;29;20813;-49
2023/08/19 12:13:26;;;;;;;5.87;5.10;;;25.00;99.90;;;;;;4908004;29;20466;-46
2023/08/19 12:15:53;;;;;;;5.87;5.27;;;25.00;99.90;;;;;;4904958;29;20599;-48
2023/08/19 12:18:20;;;;;;;5.77;5.27;;;25.00;99.90;;;;;;4908029;29;20476;-52
2023/08/19 12:20:47;;;;;;;5.77;5.27;;;25.00;99.90;;;;;;4911138;29;20466;-47
2023/08/19 12:23:14;;;;;;;5.97;5.57;;;25.00;99.90;;;;;;4910224;29;20466;-52
2023/08/19 12:25:50;;;;;;;5.60;5.10;;;25.00;99.90;;;;;;4908178;29;20998;-44
2023/08/19 12:28:16;;;;;;;6.40;5.87;;;25.00;99.90;;;;;;4908341;29;20469;-46
2023/08/19 12:30:44;;;;;;;5.43;4.93;;;25.10;99.90;;;;;;4908399;29;20467;-51
2023/08/19 12:33:11;;;;;;;6.30;5.80;;;25.00;99.90;;;;;;4907179;29;21133;-50
2023/08/19 12:35:37;;;;;;;6.27;5.87;;;25.10;99.90;;;;;;4911209;29;20672;-54
2023/08/19 12:38:05;;;;;;;5.10;4.80;;;25.10;99.90;;;;;;4911511;29;21005;-52
2023/08/19 12:40:32;;;;;;;6.57;6.07;;;25.10;99.90;;;;;;4913105;29;20482;-55
2023/08/19 12:43:00;;;;;;;6.13;5.53;;;25.10;99.90;;;;;;4907935;29;20464;-47
2023/08/19 12:45:27;;;;;;;6.43;5.93;;;25.10;99.90;;;;;;4910956;29;21013;-50
2023/08/19 12:47:54;;;;;;;6.33;5.83;;;25.10;99.90;;;;;;4914221;29;20959;-44
2023/08/19 12:50:21;;;;;;;7.87;6.33;;;25.10;99.90;;;;;;4914139;29;20466;-45
2023/08/19 12:52:49;;;;;;;7.00;6.30;;;25.10;99.90;;;;;;4911498;29;20474;-45
2023/08/19 12:55:18;;;;;;;6.00;5.50;;;25.10;99.90;;;;;;4911358;29;20472;-45
2023/08/19 12:57:46;;;;;;;6.93;6.23;;;25.10;99.90;;;;;;4911528;29;20499;-45
2023/08/19 13:00:16;;;;;;;5.93;5.33;;;25.10;99.90;;;;;;4909681;29;20505;-45
2023/08/19 13:02:43;;;;;;;8.83;5.87;;;25.20;99.90;;;;;;4898027;29;20472;-45
2023/08/19 13:05:11;;;;;;;7.23;6.63;;;25.20;99.90;;;;;;4892984;29;20455;-48
2023/08/19 13:07:38;;;;;;;7.70;7.10;;;25.20;99.90;;;;;;4905456;29;20900;-45
2023/08/19 13:10:06;;;;;;;6.07;5.60;;;25.20;99.90;;;;;;4905017;29;21515;-49
2023/08/19 13:12:32;;;;;;;7.00;6.30;;;25.20;99.90;;;;;;4906968;29;20463;-48
2023/08/19 13:14:59;;;;;;;6.27;5.87;;;25.20;99.90;;;;;;4907772;29;21109;-48
2023/08/19 13:17:28;;;;;;;7.53;6.90;;;25.20;99.90;;;;;;4908883;29;20471;-50
2023/08/19 13:19:55;;;;;;;7.30;6.60;;;25.20;99.90;;;;;;4910301;29;20488;-49
2023/08/19 13:22:22;;;;;;;6.37;5.77;;;25.20;99.90;;;;;;4908561;29;20514;-52
2023/08/19 13:24:49;;;;;;;7.20;6.60;;;25.30;99.90;;;;;;4904531;29;20471;-54
2023/08/19 13:27:16;;;;;;;6.73;6.23;;;25.30;99.90;;;;;;4907026;29;20982;-52
2023/08/19 13:29:43;;;;;;;8.50;7.67;;;25.30;99.90;;;;;;4904223;29;20475;-53
2023/08/19 13:32:10;;;;;;;7.57;6.97;;;25.30;99.90;;;;;;4907981;29;20785;-51
2023/08/19 13:34:39;;;;;;;8.80;7.90;;;25.30;99.90;;;;;;4908106;29;20464;-48
2023/08/19 13:37:06;;;;;;;8.20;7.33;;;25.30;99.90;;;;;;4907546;29;20468;-50
2023/08/19 13:39:35;;;;;;;7.60;6.93;;;25.30;99.90;;;;;;4905467;29;20797;-47
2023/08/19 13:42:01;;;;;;;8.50;7.70;;;25.30;99.90;;;;;;4901044;29;21110;-46
2023/08/19 13:44:28;;;;;;;8.60;7.80;;;25.40;99.90;;;;;;4908307;29;20562;-46
2023/08/19 13:46:56;;;;;;;7.57;7.00;;;25.30;99.90;;;;;;4907814;29;20463;-48
2023/08/19 13:49:23;;;;;;;8.40;7.60;;;25.30;99.90;;;;;;4911285;29;20463;-46
2023/08/19 13:51:52;;;;;;;8.13;7.53;;;25.40;99.90;;;;;;4909444;29;20474;-46
2023/08/19 13:54:19;;;;;;;9.40;8.10;;;25.30;99.90;;;;;;4905712;29;20468;-46
2023/08/19 13:56:47;;;;;;;8.17;7.53;;;25.40;99.90;;;;;;4902088;29;20716;-47
2023/08/19 13:59:14;;;;;;;7.90;7.40;;;25.40;99.90;;;;;;4903680;29;20855;-46
2023/08/19 14:01:41;;;;;;;7.80;7.17;;;25.40;99.90;;;;;;4907181;29;20466;-48
2023/08/19 14:04:08;;;;;;;8.80;7.90;;;25.40;99.90;;;;;;4909371;29;20475;-47
2023/08/19 14:06:35;;;;;;;7.77;6.93;;;25.40;99.90;;;;;;4908012;29;21014;-46
2023/08/19 14:09:03;;;;;;;9.90;9.10;;;25.40;99.90;;;;;;4911210;29;20464;-46
2023/08/19 14:11:30;;;;;;;8.57;7.87;;;25.40;99.90;;;;;;4910849;29;20501;-48
2023/08/19 14:13:57;;;;;;;8.50;7.80;;;25.40;99.90;;;;;;4908246;29;20467;-50
2023/08/19 14:16:23;;;;;;;8.20;7.57;;;25.40;99.90;;;;;;4909304;29;20468;-49
2023/08/19 14:18:50;;;;;;;9.93;9.03;;;25.30;99.90;;;;;;4907776;29;20472;-52
2023/08/19 14:21:17;;;;;;;10.07;7.97;;;25.40;99.90;;;;;;4901275;29;20953;-51
2023/08/19 14:23:44;;;;;;;8.50;7.40;;;25.40;99.90;;;;;;4908324;29;20464;-52
2023/08/19 14:26:12;;;;;;;9.63;8.83;;;25.40;99.90;;;;;;4902460;29;20463;-50
2023/08/19 14:28:39;;;;;;;10.27;8.70;;;25.30;99.90;;;;;;4902657;29;21050;-55
2023/08/19 14:31:05;;;;;;;8.40;7.70;;;25.30;99.90;;;;;;4905258;29;20467;-52
2023/08/19 14:33:32;;;;;;;9.13;8.33;;;25.30;99.90;;;;;;4906013;29;20475;-53
2023/08/19 14:35:59;;;;;;;9.97;9.10;;;25.30;99.90;;;;;;4909869;29;20467;-49
2023/08/19 14:38:26;;;;;;;10.00;9.10;;;25.30;99.90;;;;;;4905874;29;21014;-49
2023/08/19 14:40:52;;;;;;;10.53;9.53;;;25.30;99.90;;;;;;4905730;29;20486;-54
2023/08/19 14:43:20;;;;;;;9.60;8.70;;;25.40;99.90;;;;;;4910505;29;20456;-55
2023/08/19 14:45:48;;;;;;;10.03;9.23;;;25.40;99.90;;;;;;4905367;29;20501;-55
2023/08/19 14:48:14;;;;;;;11.33;9.70;;;25.40;99.90;;;;;;4908763;29;20471;-51
2023/08/19 14:50:41;;;;;;;10.20;9.30;;;25.40;99.90;;;;;;4908156;29;20980;-47
2023/08/19 14:53:08;;;;;;;10.77;9.97;;;25.40;99.90;;;;;;4909653;29;20464;-52
2023/08/19 14:55:37;;;;;;;10.50;9.60;;;25.40;99.90;;;;;;4905972;29;20518;-52
2023/08/19 14:58:04;;;;;;;12.60;11.40;;;25.40;99.90;;;;;;4908531;29;20505;-51
2023/08/19 15:00:32;;;;;;;10.17;9.17;;;25.40;99.90;;;;;;4908764;29;20501;-55
2023/08/19 15:02:59;;;;;;;11.23;10.43;;;25.40;99.90;;;;;;4909642;29;20498;-55
2023/08/19 15:05:26;;;;;;;10.00;9.20;;;25.40;99.90;;;;;;4910979;29;20558;-55
2023/08/19 15:07:53;;;;;;;11.17;10.17;;;25.40;99.90;;;;;;4909256;29;20502;-52
2023/08/19 15:10:19;;;;;;;12.07;10.83;;;25.40;99.90;;;;;;4901444;29;20463;-50
2023/08/19 15:12:46;;;;;;;15.57;13.30;;;25.40;99.90;;;;;;4904711;29;20812;-49
2023/08/19 15:15:17;;;;;;;24.13;14.60;;;25.40;99.90;;;;;;4905821;29;20964;-47
2023/08/19 15:17:45;;;;;;;25.97;14.83;;;25.50;99.90;;;;;;4904414;29;20515;-52
2023/08/19 15:20:12;;;;;;;25.07;17.57;;;25.50;99.90;;;;;;4909604;29;20495;-47
2023/08/19 15:22:39;;;;;;;41.97;22.83;;;25.50;99.90;;;;;;4904437;29;21315;-45
2023/08/19 15:25:08;;;;;;;32.27;19.60;;;25.50;99.90;;;;;;4907905;29;20467;-46
2023/08/19 15:27:34;;;;;;;40.37;21.03;;;25.50;99.90;;;;;;4909737;29;20464;-48
2023/08/19 15:30:01;;;;;;;31.07;19.20;;;25.50;99.90;;;;;;4906488;29;20527;-51
2023/08/19 15:32:28;;;;;;;35.87;21.73;;;25.50;99.90;;;;;;4905748;29;20467;-50
2023/08/19 15:34:56;;;;;;;33.13;22.90;;;25.50;99.90;;;;;;4908192;29;20470;-48
2023/08/19 15:37:23;;;;;;;32.97;21.50;;;25.50;99.90;;;;;;4912873;29;20478;-48
2023/08/19 15:39:50;;;;;;;33.90;22.63;;;25.50;99.90;;;;;;4909133;29;20495;-48
2023/08/19 15:42:19;;;;;;;32.67;22.40;;;25.50;99.90;;;;;;4905139;29;20975;-45
2023/08/19 15:44:45;;;;;;;33.90;23.80;;;25.50;99.90;;;;;;4908601;29;20754;-53
2023/08/19 15:47:12;;;;;;;38.40;23.70;;;25.50;99.90;;;;;;4904582;29;20463;-51
2023/08/19 15:49:39;;;;;;;38.53;25.73;;;25.50;99.90;;;;;;4909259;29;20891;-49
2023/08/19 15:52:07;;;;;;;37.60;23.20;;;25.50;99.90;;;;;;4911806;29;20456;-54
2023/08/19 15:54:34;;;;;;;44.10;24.63;;;25.50;99.90;;;;;;4906246;29;20463;-50
2023/08/19 15:57:00;;;;;;;30.40;23.30;;;25.50;99.90;;;;;;4909422;29;20472;-46
2023/08/19 15:59:27;;;;;;;30.03;22.50;;;25.50;99.90;;;;;;4907599;29;20444;-46
2023/08/19 16:01:54;;;;;;;36.37;23.20;;;25.60;99.90;;;;;;4907746;29;20464;-49
2023/08/19 16:04:20;;;;;;;39.10;24.47;;;25.60;99.90;;;;;;4904251;29;20468;-45
2023/08/19 16:06:47;;;;;;;32.57;22.93;;;25.60;99.90;;;;;;4905331;29;20468;-52
2023/08/19 16:09:15;;;;;;;34.73;23.13;;;25.60;99.90;;;;;;4902591;29;21097;-46
2023/08/19 16:11:42;;;;;;;37.33;24.10;;;25.60;99.90;;;;;;4898401;29;21294;-49
2023/08/19 16:14:09;;;;;;;35.50;24.53;;;25.60;99.90;;;;;;4905736;29;20458;-55
2023/08/19 16:16:36;;;;;;;34.10;24.77;;;25.60;99.90;;;;;;4901860;29;20498;-55
2023/08/19 16:19:02;;;;;;;29.03;20.27;;;25.60;99.90;;;;;;4904801;29;20464;-50
2023/08/19 16:21:30;;;;;;;31.10;21.90;;;25.60;99.90;;;;;;4909668;29;20949;-48
2023/08/19 16:23:57;;;;;;;33.27;22.77;;;25.60;99.90;;;;;;4907877;29;20475;-56
2023/08/19 16:26:25;;;;;;;29.57;22.30;;;25.60;99.90;;;;;;4914234;29;20456;-49
2023/08/19 16:28:52;;;;;;;34.53;23.60;;;25.60;99.90;;;;;;4917100;29;20473;-49
2023/08/19 16:31:19;;;;;;;31.73;22.23;;;25.60;99.90;;;;;;4912190;29;20950;-49
2023/08/19 16:33:45;;;;;;;27.43;21.20;;;25.60;99.90;;;;;;4912669;29;20497;-48
2023/08/19 16:36:12;;;;;;;30.53;21.30;;;25.60;99.90;;;;;;4911729;29;20459;-47
2023/08/19 16:38:39;;;;;;;25.70;21.00;;;25.60;99.90;;;;;;4903976;29;20482;-47
2023/08/19 16:41:07;;;;;;;25.20;20.93;;;25.70;99.90;;;;;;4911434;29;20510;-47
2023/08/19 16:43:36;;;;;;;27.50;20.20;;;25.70;99.90;;;;;;4913861;29;20999;-47
2023/08/19 16:46:02;;;;;;;25.63;20.70;;;25.70;99.90;;;;;;4908211;29;20876;-48
2023/08/19 16:48:29;;;;;;;21.90;19.50;;;25.70;99.90;;;;;;4912958;29;20458;-46
2023/08/19 16:50:56;;;;;;;25.70;19.10;;;25.70;99.90;;;;;;4909547;29;20513;-48
2023/08/19 16:53:23;;;;;;;23.37;18.83;;;25.70;99.90;;;;;;4912112;29;20471;-48
2023/08/19 16:55:56;;;;;;;26.00;21.07;;;25.70;99.90;;;;;;4913380;29;20463;-49
2023/08/19 16:58:24;;;;;;;23.80;18.20;;;25.70;99.90;;;;;;4911915;29;20466;-47
2023/08/19 17:00:59;;;;;;;24.23;19.07;;;25.70;99.90;;;;;;4909987;29;20634;-46
2023/08/19 17:03:26;;;;;;;20.83;18.70;;;25.70;99.90;;;;;;4912751;29;20673;-47
2023/08/19 17:05:53;;;;;;;21.73;18.90;;;25.70;99.90;;;;;;4909968;29;20467;-50
2023/08/19 17:08:19;;;;;;;22.50;18.73;;;25.70;99.90;;;;;;4914643;29;20467;-49
2023/08/19 17:10:46;;;;;;;22.43;18.77;;;25.70;99.90;;;;;;4911132;29;20450;-46
2023/08/19 17:13:13;;;;;;;23.43;18.03;;;25.70;99.90;;;;;;4915732;29;20469;-47
2023/08/19 17:15:40;;;;;;;18.90;16.90;;;25.70;99.90;;;;;;4909914;29;20976;-47
2023/08/19 17:18:08;;;;;;;20.80;18.70;;;25.70;99.90;;;;;;4901386;29;21353;-47
2023/08/19 17:20:34;;;;;;;19.63;16.60;;;25.70;99.90;;;;;;4910834;29;20487;-47
2023/08/19 17:23:02;;;;;;;17.90;16.10;;;25.70;99.90;;;;;;4908364;29;20462;-47
2023/08/19 17:25:31;;;;;;;20.43;17.90;;;25.70;99.90;;;;;;4907529;29;20443;-47
2023/08/19 17:27:58;;;;;;;18.73;16.83;;;25.70;99.90;;;;;;4900142;29;20773;-54
2023/08/19 17:30:24;;;;;;;23.63;17.20;;;25.70;99.90;;;;;;4904942;29;20474;-52
2023/08/19 17:32:51;;;;;;;20.87;18.70;;;25.60;99.90;;;;;;4902275;29;20464;-53
2023/08/19 17:35:20;;;;;;;19.47;15.00;;;25.60;99.90;;;;;;4907601;29;20466;-55
2023/08/19 17:37:46;;;;;;;20.40;16.13;;;25.60;99.90;;;;;;4917840;29;20546;-57
2023/08/19 17:40:14;;;;;;;18.10;16.33;;;25.60;99.90;;;;;;4910314;29;20472;-48
2023/08/19 17:42:41;;;;;;;17.10;15.40;;;25.60;99.90;;;;;;4908793;29;20516;-52
2023/08/19 17:45:09;;;;;;;17.10;15.50;;;25.70;99.90;;;;;;4906965;29;20463;-49
2023/08/19 17:47:35;;;;;;;17.33;15.33;;;25.60;99.90;;;;;;4906153;29;20467;-51
2023/08/19 17:50:02;;;;;;;16.60;15.00;;;25.60;99.90;;;;;;4906949;29;20471;-53
2023/08/19 17:52:30;;;;;;;19.00;16.17;;;25.60;99.90;;;;;;4909207;29;20549;-52
2023/08/19 17:54:57;;;;;;;16.53;15.23;;;25.60;99.90;;;;;;4910345;29;20983;-53
2023/08/19 17:57:25;;;;;;;17.47;15.87;;;25.60;99.90;;;;;;4906407;29;20693;-47
2023/08/19 17:59:51;;;;;;;15.23;13.93;;;25.60;99.90;;;;;;4910666;29;20551;-55
2023/08/19 18:02:18;;;;;;;16.50;14.97;;;25.70;99.90;;;;;;4900902;29;20486;-57
2023/08/19 18:04:45;;;;;;;15.57;14.07;;;25.70;99.90;;;;;;4909825;29;21030;-57
2023/08/19 18:07:14;;;;;;;15.70;14.30;;;25.70;99.90;;;;;;4910310;29;20471;-58
2023/08/19 18:09:42;;;;;;;15.10;13.67;;;25.70;99.90;;;;;;4911651;29;20459;-50
2023/08/19 18:12:08;;;;;;;14.43;13.03;;;25.70;99.90;;;;;;4911303;29;20468;-50
2023/08/19 18:14:35;;;;;;;14.67;13.30;;;25.70;99.90;;;;;;4910494;29;20472;-55
2023/08/19 18:17:02;;;;;;;14.00;12.90;;;25.70;99.90;;;;;;4904492;29;20939;-52
2023/08/19 18:19:31;;;;;;;15.50;12.87;;;25.70;99.90;;;;;;4907951;29;20495;-54
2023/08/19 18:21:57;;;;;;;14.70;13.17;;;25.70;99.90;;;;;;4909244;29;20827;-51
2023/08/19 18:24:24;;;;;;;13.73;12.53;;;25.70;99.90;;;;;;4909849;29;20890;-49
2023/08/19 18:26:52;;;;;;;13.23;12.10;;;25.70;99.90;;;;;;4908547;29;20526;-52
2023/08/19 18:29:19;;;;;;;13.07;12.13;;;25.70;99.90;;;;;;4910414;29;20453;-54
2023/08/19 18:31:46;;;;;;;13.67;12.57;;;25.70;99.90;;;;;;4898180;29;20898;-48
2023/08/19 18:34:13;;;;;;;14.60;13.10;;;25.70;99.90;;;;;;4908909;29;20468;-47
2023/08/19 18:36:39;;;;;;;13.80;12.30;;;25.70;99.90;;;;;;4910188;29;20467;-50
2023/08/19 18:39:07;;;;;;;13.37;12.17;;;25.70;99.90;;;;;;4910817;29;20472;-51
2023/08/19 18:41:33;;;;;;;13.47;12.23;;;25.80;99.90;;;;;;4908666;29;20499;-46
2023/08/19 18:44:01;;;;;;;13.00;12.00;;;25.70;99.90;;;;;;4906377;29;20468;-47
2023/08/19 18:46:28;;;;;;;13.57;12.17;;;25.70;99.90;;;;;;4906094;29;21368;-47
2023/08/19 18:48:55;;;;;;;13.23;12.03;;;25.70;99.90;;;;;;4905002;29;20482;-47
2023/08/19 18:51:21;;;;;;;13.33;12.23;;;25.70;99.90;;;;;;4906820;29;20537;-49
2023/08/19 18:53:48;;;;;;;11.53;10.53;;;25.70;99.90;;;;;;4909996;29;20467;-47